Stanton, Delaware
Current Conditions -  °F | °C
As of 4:51 PM on Friday 24 Oct 2014 (Local Time) from KILG Reporting Station
Clear Clear  
Wind Chill: 68°   Ceiling: Unl
Heat Index: 68°   Visibility: 10mi
Dew Point: 44°   Wind: 15mph
Humidity: 42%   Direction: 290°WNW
Pressure: 29.84"   Gusts: NA
Location:  39.7187°N, 75.6123°W
Report Text: KILG 242051Z 29013KT 10SM CLR 20/07 A2984 RMK AO2 SLP103 T02000067 55003
Loading
Personal Weather Stations






























Interactive Weather Map
Tropical Storm Tracking
New forecast layout! Learn more

10-Day Weather Forecast

Advertisements
Track Severe Weather on mobile